sensor_id;sensor_type;location;lat;lon;timestamp;P1;P2;P0
72031;PMS5003;49185;42.320;23.198;2022-08-07T00:00:53;17.67;16.67;7.00
72031;PMS5003;49185;42.320;23.198;2022-08-07T00:03:19;17.00;14.67;6.00
72031;PMS5003;49185;42.320;23.198;2022-08-07T00:05:44;15.00;14.00;5.67
72031;PMS5003;49185;42.320;23.198;2022-08-07T00:08:10;16.00;15.00;8.00
72031;PMS5003;49185;42.320;23.198;2022-08-07T00:10:35;16.00;14.00;7.00
72031;PMS5003;49185;42.320;23.198;2022-08-07T00:13:02;17.33;16.67;9.00
72031;PMS5003;49185;42.320;23.198;2022-08-07T00:15:30;17.50;17.50;7.00
72031;PMS5003;49185;42.320;23.198;2022-08-07T00:17:56;16.00;16.00;6.75
72031;PMS5003;49185;42.320;23.198;2022-08-07T00:20:23;17.75;16.00;8.00
72031;PMS5003;49185;42.320;23.198;2022-08-07T00:22:49;19.00;18.00;7.00
72031;PMS5003;49185;42.320;23.198;2022-08-07T00:25:14;17.00;17.00;7.00
72031;PMS5003;49185;42.320;23.198;2022-08-07T00:27:40;15.33;15.00;6.33
72031;PMS5003;49185;42.320;23.198;2022-08-07T00:30:05;16.00;14.33;7.00
72031;PMS5003;49185;42.320;23.198;2022-08-07T00:32:31;17.00;15.75;6.25
72031;PMS5003;49185;42.320;23.198;2022-08-07T00:34:57;16.00;16.00;7.00
72031;PMS5003;49185;42.320;23.198;2022-08-07T00:37:22;17.00;17.00;7.00
72031;PMS5003;49185;42.320;23.198;2022-08-07T00:39:48;16.67;16.67;8.00
72031;PMS5003;49185;42.320;23.198;2022-08-07T00:42:13;17.00;17.00;7.00
72031;PMS5003;49185;42.320;23.198;2022-08-07T00:44:39;19.00;18.00;6.00
72031;PMS5003;49185;42.320;23.198;2022-08-07T00:47:05;20.00;18.00;7.00
72031;PMS5003;49185;42.320;23.198;2022-08-07T00:49:30;17.00;17.00;8.00
72031;PMS5003;49185;42.320;23.198;2022-08-07T00:51:56;16.00;15.00;8.00
72031;PMS5003;49185;42.320;23.198;2022-08-07T00:54:22;17.00;15.00;8.00
72031;PMS5003;49185;42.320;23.198;2022-08-07T00:56:48;14.33;13.00;6.00
72031;PMS5003;49185;42.320;23.198;2022-08-07T00:59:14;18.75;16.25;6.00
72031;PMS5003;49185;42.320;23.198;2022-08-07T01:01:40;17.25;15.25;6.50
72031;PMS5003;49185;42.320;23.198;2022-08-07T01:04:06;17.50;16.00;6.00
72031;PMS5003;49185;42.320;23.198;2022-08-07T01:06:32;18.00;16.25;7.75
72031;PMS5003;49185;42.320;23.198;2022-08-07T01:08:58;18.00;17.00;9.00
72031;PMS5003;49185;42.320;23.198;2022-08-07T01:11:25;18.00;17.25;8.25
72031;PMS5003;49185;42.320;23.198;2022-08-07T01:13:51;18.00;18.00;10.00
72031;PMS5003;49185;42.320;23.198;2022-08-07T01:16:16;18.00;18.00;8.67
72031;PMS5003;49185;42.320;23.198;2022-08-07T01:18:42;16.00;16.00;8.00
72031;PMS5003;49185;42.320;23.198;2022-08-07T01:21:15;15.00;14.00;5.00
72031;PMS5003;49185;42.320;23.198;2022-08-07T01:23:43;19.75;17.00;7.00
72031;PMS5003;49185;42.320;23.198;2022-08-07T01:26:10;18.00;17.00;7.00
72031;PMS5003;49185;42.320;23.198;2022-08-07T01:28:37;18.50;18.50;6.25
72031;PMS5003;49185;42.320;23.198;2022-08-07T01:31:04;19.00;17.75;8.00
72031;PMS5003;49185;42.320;23.198;2022-08-07T01:33:30;15.33;15.00;6.00
72031;PMS5003;49185;42.320;23.198;2022-08-07T01:35:56;17.00;14.00;7.00
72031;PMS5003;49185;42.320;23.198;2022-08-07T01:38:22;16.00;14.25;7.00
72031;PMS5003;49185;42.320;23.198;2022-08-07T01:40:48;17.00;15.00;7.00
72031;PMS5003;49185;42.320;23.198;2022-08-07T01:43:17;17.75;17.00;7.75
72031;PMS5003;49185;42.320;23.198;2022-08-07T01:45:42;17.00;16.00;7.00
72031;PMS5003;49185;42.320;23.198;2022-08-07T01:48:08;15.00;14.00;6.00
72031;PMS5003;49185;42.320;23.198;2022-08-07T01:50:37;12.00;12.00;6.00
72031;PMS5003;49185;42.320;23.198;2022-08-07T01:53:04;13.00;12.00;7.00
72031;PMS5003;49185;42.320;23.198;2022-08-07T01:55:44;13.00;11.00;6.50
72031;PMS5003;49185;42.320;23.198;2022-08-07T01:58:16;13.75;13.00;6.75
72031;PMS5003;49185;42.320;23.198;2022-08-07T02:00:45;15.75;15.75;8.00
72031;PMS5003;49185;42.320;23.198;2022-08-07T02:03:17;15.00;15.00;7.00
72031;PMS5003;49185;42.320;23.198;2022-08-07T02:05:54;13.75;13.50;7.50
72031;PMS5003;49185;42.320;23.198;2022-08-07T02:08:23;16.25;14.50;7.00
72031;PMS5003;49185;42.320;23.198;2022-08-07T02:10:50;14.75;12.00;6.00
72031;PMS5003;49185;42.320;23.198;2022-08-07T02:13:16;14.00;13.00;6.00
72031;PMS5003;49185;42.320;23.198;2022-08-07T02:15:44;20.25;18.00;8.50
72031;PMS5003;49185;42.320;23.198;2022-08-07T02:18:11;22.00;18.00;9.00
72031;PMS5003;49185;42.320;23.198;2022-08-07T02:20:37;27.75;25.75;16.25
72031;PMS5003;49185;42.320;23.198;2022-08-07T02:23:05;22.50;22.25;16.00
72031;PMS5003;49185;42.320;23.198;2022-08-07T02:25:32;20.50;19.50;12.50
72031;PMS5003;49185;42.320;23.198;2022-08-07T02:28:00;21.50;20.00;11.50
72031;PMS5003;49185;42.320;23.198;2022-08-07T02:30:27;20.50;20.00;12.00
72031;PMS5003;49185;42.320;23.198;2022-08-07T02:32:54;20.00;19.00;11.50
72031;PMS5003;49185;42.320;23.198;2022-08-07T02:35:23;21.00;20.00;12.00
72031;PMS5003;49185;42.320;23.198;2022-08-07T02:37:50;17.00;17.00;7.00
72031;PMS5003;49185;42.320;23.198;2022-08-07T02:40:17;14.00;13.00;5.00
72031;PMS5003;49185;42.320;23.198;2022-08-07T02:42:43;14.00;14.00;6.00
72031;PMS5003;49185;42.320;23.198;2022-08-07T02:45:11;16.75;16.25;8.50
72031;PMS5003;49185;42.320;23.198;2022-08-07T02:47:39;21.00;20.00;10.00
72031;PMS5003;49185;42.320;23.198;2022-08-07T02:50:04;19.00;19.00;9.00
72031;PMS5003;49185;42.320;23.198;2022-08-07T02:52:32;19.00;18.00;8.50
72031;PMS5003;49185;42.320;23.198;2022-08-07T02:55:06;19.00;18.75;7.00
72031;PMS5003;49185;42.320;23.198;2022-08-07T02:57:44;20.00;17.75;7.25
72031;PMS5003;49185;42.320;23.198;2022-08-07T03:00:11;20.00;19.00;9.00
72031;PMS5003;49185;42.320;23.198;2022-08-07T03:02:39;20.00;20.00;10.50
72031;PMS5003;49185;42.320;23.198;2022-08-07T03:05:07;17.00;17.00;9.00
72031;PMS5003;49185;42.320;23.198;2022-08-07T03:07:35;17.00;16.00;8.00
72031;PMS5003;49185;42.320;23.198;2022-08-07T03:10:01;18.00;15.75;8.50
72031;PMS5003;49185;42.320;23.198;2022-08-07T03:12:27;18.00;17.00;7.00
72031;PMS5003;49185;42.320;23.198;2022-08-07T03:14:53;17.00;15.00;6.75
72031;PMS5003;49185;42.320;23.198;2022-08-07T03:17:20;17.00;15.00;6.00
72031;PMS5003;49185;42.320;23.198;2022-08-07T03:19:47;18.00;18.00;8.00
72031;PMS5003;49185;42.320;23.198;2022-08-07T03:22:14;18.50;18.50;10.00
72031;PMS5003;49185;42.320;23.198;2022-08-07T03:24:41;18.00;18.00;9.00
72031;PMS5003;49185;42.320;23.198;2022-08-07T03:27:07;18.33;18.00;9.00
72031;PMS5003;49185;42.320;23.198;2022-08-07T03:29:36;18.00;16.00;7.00
72031;PMS5003;49185;42.320;23.198;2022-08-07T03:32:05;18.50;17.25;8.50
72031;PMS5003;49185;42.320;23.198;2022-08-07T03:34:34;18.00;17.00;8.00
72031;PMS5003;49185;42.320;23.198;2022-08-07T03:37:02;19.50;18.25;7.00
72031;PMS5003;49185;42.320;23.198;2022-08-07T03:39:28;19.00;19.00;7.50
72031;PMS5003;49185;42.320;23.198;2022-08-07T03:41:57;16.25;15.00;6.75
72031;PMS5003;49185;42.320;23.198;2022-08-07T03:44:23;17.00;16.00;7.75
72031;PMS5003;49185;42.320;23.198;2022-08-07T03:46:50;18.00;16.00;6.75
72031;PMS5003;49185;42.320;23.198;2022-08-07T03:49:16;27.67;26.00;17.00
72031;PMS5003;49185;42.320;23.198;2022-08-07T03:51:41;32.00;28.00;20.00
72031;PMS5003;49185;42.320;23.198;2022-08-07T03:54:07;26.00;25.00;19.00
72031;PMS5003;49185;42.320;23.198;2022-08-07T03:56:33;23.00;23.00;15.00
72031;PMS5003;49185;42.320;23.198;2022-08-07T03:59:03;20.00;19.50;13.00
72031;PMS5003;49185;42.320;23.198;2022-08-07T04:01:29;19.00;19.00;9.50
72031;PMS5003;49185;42.320;23.198;2022-08-07T04:03:58;20.50;17.00;9.00
72031;PMS5003;49185;42.320;23.198;2022-08-07T04:06:24;20.00;17.25;9.00
72031;PMS5003;49185;42.320;23.198;2022-08-07T04:08:50;47.50;38.75;24.75
72031;PMS5003;49185;42.320;23.198;2022-08-07T04:11:16;38.25;32.25;21.00
72031;PMS5003;49185;42.320;23.198;2022-08-07T04:13:42;22.50;22.50;14.00
72031;PMS5003;49185;42.320;23.198;2022-08-07T04:16:10;63.00;49.75;31.25
72031;PMS5003;49185;42.320;23.198;2022-08-07T04:18:36;54.75;43.50;27.25
72031;PMS5003;49185;42.320;23.198;2022-08-07T04:21:01;32.00;30.33;18.67
72031;PMS5003;49185;42.320;23.198;2022-08-07T04:23:28;44.25;37.50;24.00
72031;PMS5003;49185;42.320;23.198;2022-08-07T04:25:56;38.00;32.25;21.00
72031;PMS5003;49185;42.320;23.198;2022-08-07T04:28:21;25.00;22.00;15.00
72031;PMS5003;49185;42.320;23.198;2022-08-07T04:30:47;22.00;20.67;13.33
72031;PMS5003;49185;42.320;23.198;2022-08-07T04:33:14;24.00;23.50;16.00
72031;PMS5003;49185;42.320;23.198;2022-08-07T04:35:42;23.00;21.75;14.00
72031;PMS5003;49185;42.320;23.198;2022-08-07T04:38:09;22.00;21.00;14.50
72031;PMS5003;49185;42.320;23.198;2022-08-07T04:40:37;21.00;20.00;13.00
72031;PMS5003;49185;42.320;23.198;2022-08-07T04:43:04;20.00;19.00;9.25
72031;PMS5003;49185;42.320;23.198;2022-08-07T04:54:17;18.75;18.25;9.25
72031;PMS5003;49185;42.320;23.198;2022-08-07T04:56:50;19.25;18.00;9.25
72031;PMS5003;49185;42.320;23.198;2022-08-07T05:02:05;17.50;17.00;7.75
72031;PMS5003;49185;42.320;23.198;2022-08-07T05:07:18;17.25;16.25;7.00
72031;PMS5003;49185;42.320;23.198;2022-08-07T05:12:25;15.00;15.00;7.25
72031;PMS5003;49185;42.320;23.198;2022-08-07T05:14:58;12.00;12.00;7.00
72031;PMS5003;49185;42.320;23.198;2022-08-07T05:17:27;14.00;14.00;7.00
72031;PMS5003;49185;42.320;23.198;2022-08-07T05:19:54;14.75;13.25;6.00
72031;PMS5003;49185;42.320;23.198;2022-08-07T05:22:21;13.25;12.25;4.25
72031;PMS5003;49185;42.320;23.198;2022-08-07T05:24:48;14.00;12.00;5.75
72031;PMS5003;49185;42.320;23.198;2022-08-07T05:27:14;15.50;15.50;10.75
72031;PMS5003;49185;42.320;23.198;2022-08-07T05:29:42;13.50;13.50;6.00
72031;PMS5003;49185;42.320;23.198;2022-08-07T05:32:10;13.00;13.00;6.75
72031;PMS5003;49185;42.320;23.198;2022-08-07T05:34:38;14.00;13.00;5.00
72031;PMS5003;49185;42.320;23.198;2022-08-07T05:37:05;14.00;13.75;6.00
72031;PMS5003;49185;42.320;23.198;2022-08-07T05:39:31;16.75;15.75;9.25
72031;PMS5003;49185;42.320;23.198;2022-08-07T05:41:59;18.00;17.00;6.75
72031;PMS5003;49185;42.320;23.198;2022-08-07T05:44:25;17.67;16.67;6.00
72031;PMS5003;49185;42.320;23.198;2022-08-07T05:46:51;16.00;15.00;6.00
72031;PMS5003;49185;42.320;23.198;2022-08-07T05:49:16;13.00;12.00;5.00
72031;PMS5003;49185;42.320;23.198;2022-08-07T05:51:44;15.75;14.25;5.75
72031;PMS5003;49185;42.320;23.198;2022-08-07T05:54:11;14.00;11.25;6.00
72031;PMS5003;49185;42.320;23.198;2022-08-07T05:56:38;13.00;10.00;4.00
72031;PMS5003;49185;42.320;23.198;2022-08-07T05:59:04;13.75;9.75;5.00
72031;PMS5003;49185;42.320;23.198;2022-08-07T06:01:33;13.00;11.00;4.25
72031;PMS5003;49185;42.320;23.198;2022-08-07T06:03:59;12.00;10.00;6.00
72031;PMS5003;49185;42.320;23.198;2022-08-07T06:06:26;9.75;9.75;5.00
72031;PMS5003;49185;42.320;23.198;2022-08-07T06:08:52;9.00;9.00;4.00
72031;PMS5003;49185;42.320;23.198;2022-08-07T06:11:18;12.25;10.25;4.50
72031;PMS5003;49185;42.320;23.198;2022-08-07T06:13:44;13.00;11.00;5.00
72031;PMS5003;49185;42.320;23.198;2022-08-07T06:16:10;13.67;12.00;5.00
72031;PMS5003;49185;42.320;23.198;2022-08-07T06:18:37;12.00;10.25;5.00
72031;PMS5003;49185;42.320;23.198;2022-08-07T06:21:04;10.00;9.00;4.00
72031;PMS5003;49185;42.320;23.198;2022-08-07T06:23:30;8.00;8.00;4.00
72031;PMS5003;49185;42.320;23.198;2022-08-07T06:25:57;10.00;9.50;3.00
72031;PMS5003;49185;42.320;23.198;2022-08-07T06:28:26;10.00;8.00;4.75
72031;PMS5003;49185;42.320;23.198;2022-08-07T06:30:52;10.00;9.00;5.00
72031;PMS5003;49185;42.320;23.198;2022-08-07T06:33:17;9.67;9.67;4.67
72031;PMS5003;49185;42.320;23.198;2022-08-07T06:35:43;11.00;11.00;5.00
72031;PMS5003;49185;42.320;23.198;2022-08-07T06:38:09;10.00;8.33;4.00
72031;PMS5003;49185;42.320;23.198;2022-08-07T06:40:49;10.00;7.67;4.33
72031;PMS5003;49185;42.320;23.198;2022-08-07T06:43:17;11.00;9.50;5.00
72031;PMS5003;49185;42.320;23.198;2022-08-07T06:45:46;9.00;8.75;4.00
72031;PMS5003;49185;42.320;23.198;2022-08-07T06:48:12;11.00;9.00;3.50
72031;PMS5003;49185;42.320;23.198;2022-08-07T07:09:46;11.00;11.00;4.00
72031;PMS5003;49185;42.320;23.198;2022-08-07T07:20:38;8.50;8.50;4.00
72031;PMS5003;49185;42.320;23.198;2022-08-07T07:23:09;11.75;11.75;5.00
72031;PMS5003;49185;42.320;23.198;2022-08-07T07:25:36;12.00;11.00;6.00
72031;PMS5003;49185;42.320;23.198;2022-08-07T07:28:20;13.00;12.00;5.00
72031;PMS5003;49185;42.320;23.198;2022-08-07T07:31:01;12.50;9.50;5.00
72031;PMS5003;49185;42.320;23.198;2022-08-07T07:33:31;8.00;8.00;4.00
72031;PMS5003;49185;42.320;23.198;2022-08-07T07:35:59;10.00;8.00;3.25
72031;PMS5003;49185;42.320;23.198;2022-08-07T07:38:27;11.25;9.25;4.00
72031;PMS5003;49185;42.320;23.198;2022-08-07T07:40:55;9.00;7.00;3.25
72031;PMS5003;49185;42.320;23.198;2022-08-07T07:43:22;11.00;9.50;4.00
72031;PMS5003;49185;42.320;23.198;2022-08-07T07:45:51;9.25;9.25;4.25
72031;PMS5003;49185;42.320;23.198;2022-08-07T07:48:18;11.00;11.00;5.00
72031;PMS5003;49185;42.320;23.198;2022-08-07T07:50:45;11.00;10.00;4.00
72031;PMS5003;49185;42.320;23.198;2022-08-07T07:53:12;11.75;10.75;4.00
72031;PMS5003;49185;42.320;23.198;2022-08-07T07:55:42;12.00;11.00;4.75
72031;PMS5003;49185;42.320;23.198;2022-08-07T07:58:07;11.67;9.00;4.00
72031;PMS5003;49185;42.320;23.198;2022-08-07T08:00:34;11.00;9.00;4.00
72031;PMS5003;49185;42.320;23.198;2022-08-07T08:03:03;11.00;10.75;5.50
72031;PMS5003;49185;42.320;23.198;2022-08-07T08:05:31;13.75;10.00;4.00
72031;PMS5003;49185;42.320;23.198;2022-08-07T08:08:00;14.00;13.00;5.00
72031;PMS5003;49185;42.320;23.198;2022-08-07T08:10:25;13.00;10.00;4.00
72031;PMS5003;49185;42.320;23.198;2022-08-07T08:12:53;11.00;10.00;5.00
72031;PMS5003;49185;42.320;23.198;2022-08-07T08:15:19;11.00;10.00;4.00
72031;PMS5003;49185;42.320;23.198;2022-08-07T08:17:44;12.00;9.00;4.00
72031;PMS5003;49185;42.320;23.198;2022-08-07T08:20:11;10.00;10.00;4.00
72031;PMS5003;49185;42.320;23.198;2022-08-07T08:22:40;9.00;8.00;6.00
72031;PMS5003;49185;42.320;23.198;2022-08-07T08:25:08;9.50;9.25;3.25
72031;PMS5003;49185;42.320;23.198;2022-08-07T08:27:36;10.00;9.50;5.00
72031;PMS5003;49185;42.320;23.198;2022-08-07T08:30:05;10.00;9.50;5.00
72031;PMS5003;49185;42.320;23.198;2022-08-07T08:32:34;11.00;10.75;4.00
72031;PMS5003;49185;42.320;23.198;2022-08-07T08:35:03;17.75;16.75;9.00
72031;PMS5003;49185;42.320;23.198;2022-08-07T08:37:29;19.25;19.25;9.25
72031;PMS5003;49185;42.320;23.198;2022-08-07T08:39:59;20.75;20.00;9.25
72031;PMS5003;49185;42.320;23.198;2022-08-07T08:42:36;17.50;16.50;6.50
72031;PMS5003;49185;42.320;23.198;2022-08-07T08:45:17;15.00;14.00;6.00
72031;PMS5003;49185;42.320;23.198;2022-08-07T08:50:46;15.00;14.00;7.00
72031;PMS5003;49185;42.320;23.198;2022-08-07T08:56:20;19.00;14.00;6.00
72031;PMS5003;49185;42.320;23.198;2022-08-07T08:58:55;18.00;15.00;8.00
72031;PMS5003;49185;42.320;23.198;2022-08-07T09:10:56;15.00;15.00;5.00
72031;PMS5003;49185;42.320;23.198;2022-08-07T09:37:32;16.25;13.00;5.50
72031;PMS5003;49185;42.320;23.198;2022-08-07T09:40:11;19.25;16.25;6.00
72031;PMS5003;49185;42.320;23.198;2022-08-07T09:53:56;18.00;17.00;7.50
72031;PMS5003;49185;42.320;23.198;2022-08-07T10:01:56;17.25;16.25;6.75
72031;PMS5003;49185;42.320;23.198;2022-08-07T10:07:12;17.75;15.50;7.00
72031;PMS5003;49185;42.320;23.198;2022-08-07T10:10:12;17.50;16.00;6.00
72031;PMS5003;49185;42.320;23.198;2022-08-07T10:37:18;16.00;14.00;6.00
72031;PMS5003;49185;42.320;23.198;2022-08-07T10:40:00;13.00;11.00;3.50
72031;PMS5003;49185;42.320;23.198;2022-08-07T10:45:26;10.75;9.00;5.25
72031;PMS5003;49185;42.320;23.198;2022-08-07T10:51:21;8.50;8.25;4.00
72031;PMS5003;49185;42.320;23.198;2022-08-07T10:56:52;12.25;12.25;7.50
72031;PMS5003;49185;42.320;23.198;2022-08-07T11:02:18;12.00;11.50;6.00
72031;PMS5003;49185;42.320;23.198;2022-08-07T11:05:07;16.00;14.00;5.75
72031;PMS5003;49185;42.320;23.198;2022-08-07T11:11:00;13.25;10.00;5.00
72031;PMS5003;49185;42.320;23.198;2022-08-07T11:16:26;17.00;14.00;6.00
72031;PMS5003;49185;42.320;23.198;2022-08-07T11:22:24;11.00;9.00;5.00
72031;PMS5003;49185;42.320;23.198;2022-08-07T11:25:11;11.00;10.25;4.00
72031;PMS5003;49185;42.320;23.198;2022-08-07T11:28:03;12.25;12.25;6.00
72031;PMS5003;49185;42.320;23.198;2022-08-07T11:36:17;13.00;12.00;5.00
72031;PMS5003;49185;42.320;23.198;2022-08-07T11:41:56;13.00;9.50;5.00
72031;PMS5003;49185;42.320;23.198;2022-08-07T11:44:46;14.75;11.00;5.00
72031;PMS5003;49185;42.320;23.198;2022-08-07T11:50:15;12.25;10.00;5.00
72031;PMS5003;49185;42.320;23.198;2022-08-07T11:52:51;12.00;11.25;5.00
72031;PMS5003;49185;42.320;23.198;2022-08-07T11:58:15;13.00;10.75;4.00
72031;PMS5003;49185;42.320;23.198;2022-08-07T12:12:10;14.00;12.00;5.00
72031;PMS5003;49185;42.320;23.198;2022-08-07T12:15:13;13.00;13.00;5.50
72031;PMS5003;49185;42.320;23.198;2022-08-07T12:17:47;11.00;11.00;5.00
72031;PMS5003;49185;42.320;23.198;2022-08-07T12:22:50;11.25;10.00;5.25
72031;PMS5003;49185;42.320;23.198;2022-08-07T12:25:31;16.50;13.75;6.00
72031;PMS5003;49185;42.320;23.198;2022-08-07T12:28:05;19.50;17.50;9.00
72031;PMS5003;49185;42.320;23.198;2022-08-07T12:30:39;19.00;18.00;8.00
72031;PMS5003;49185;42.320;23.198;2022-08-07T12:33:11;17.50;17.00;7.50
72031;PMS5003;49185;42.320;23.198;2022-08-07T12:35:40;17.00;14.00;5.00
72031;PMS5003;49185;42.320;23.198;2022-08-07T12:38:06;25.75;23.75;13.00
72031;PMS5003;49185;42.320;23.198;2022-08-07T12:40:33;26.75;24.50;15.50
72031;PMS5003;49185;42.320;23.198;2022-08-07T12:43:02;27.00;26.50;17.75
72031;PMS5003;49185;42.320;23.198;2022-08-07T12:45:43;18.75;18.75;13.00
72031;PMS5003;49185;42.320;23.198;2022-08-07T12:51:31;19.25;17.25;8.75
72031;PMS5003;49185;42.320;23.198;2022-08-07T12:54:05;18.25;17.00;7.00
72031;PMS5003;49185;42.320;23.198;2022-08-07T12:56:45;20.50;18.00;8.75
72031;PMS5003;49185;42.320;23.198;2022-08-07T12:59:19;21.00;20.50;8.00
72031;PMS5003;49185;42.320;23.198;2022-08-07T13:01:54;21.25;19.00;7.00
72031;PMS5003;49185;42.320;23.198;2022-08-07T13:13:33;20.00;18.00;8.00
72031;PMS5003;49185;42.320;23.198;2022-08-07T13:21:45;21.50;20.00;8.00
72031;PMS5003;49185;42.320;23.198;2022-08-07T13:32:19;17.00;17.00;8.00
72031;PMS5003;49185;42.320;23.198;2022-08-07T13:37:45;18.00;18.00;7.75
72031;PMS5003;49185;42.320;23.198;2022-08-07T13:40:24;18.50;18.50;8.50
72031;PMS5003;49185;42.320;23.198;2022-08-07T13:42:53;17.00;16.00;7.00
72031;PMS5003;49185;42.320;23.198;2022-08-07T13:45:22;17.00;17.00;7.00
72031;PMS5003;49185;42.320;23.198;2022-08-07T13:47:51;20.50;19.00;7.00
72031;PMS5003;49185;42.320;23.198;2022-08-07T13:50:19;19.00;19.00;7.00
72031;PMS5003;49185;42.320;23.198;2022-08-07T13:52:48;18.50;18.50;8.50
72031;PMS5003;49185;42.320;23.198;2022-08-07T13:55:16;19.75;19.00;9.00
72031;PMS5003;49185;42.320;23.198;2022-08-07T13:57:44;22.00;21.00;10.00
72031;PMS5003;49185;42.320;23.198;2022-08-07T14:00:14;20.75;20.00;11.00
72031;PMS5003;49185;42.320;23.198;2022-08-07T14:02:41;19.00;19.00;10.00
72031;PMS5003;49185;42.320;23.198;2022-08-07T14:05:08;18.50;18.00;9.00
72031;PMS5003;49185;42.320;23.198;2022-08-07T14:07:46;19.00;19.00;9.00
72031;PMS5003;49185;42.320;23.198;2022-08-07T14:10:14;20.00;19.00;8.00
72031;PMS5003;49185;42.320;23.198;2022-08-07T14:12:43;21.50;21.25;11.00
72031;PMS5003;49185;42.320;23.198;2022-08-07T14:15:10;22.00;20.00;11.00
72031;PMS5003;49185;42.320;23.198;2022-08-07T14:18:02;23.00;20.00;11.00
72031;PMS5003;49185;42.320;23.198;2022-08-07T14:20:31;22.00;21.00;12.00
72031;PMS5003;49185;42.320;23.198;2022-08-07T14:23:15;19.50;19.25;8.75
72031;PMS5003;49185;42.320;23.198;2022-08-07T14:25:43;20.00;19.50;9.00
72031;PMS5003;49185;42.320;23.198;2022-08-07T14:28:13;22.75;20.25;10.75
72031;PMS5003;49185;42.320;23.198;2022-08-07T14:30:45;23.00;20.00;10.00
72031;PMS5003;49185;42.320;23.198;2022-08-07T14:33:11;22.00;19.00;9.00
72031;PMS5003;49185;42.320;23.198;2022-08-07T14:35:40;20.50;20.00;9.25
72031;PMS5003;49185;42.320;23.198;2022-08-07T14:38:08;18.50;18.00;9.00
72031;PMS5003;49185;42.320;23.198;2022-08-07T14:40:35;18.00;18.00;8.75
72031;PMS5003;49185;42.320;23.198;2022-08-07T14:43:11;21.25;21.00;11.00
72031;PMS5003;49185;42.320;23.198;2022-08-07T14:45:48;25.00;24.00;14.00
72031;PMS5003;49185;42.320;23.198;2022-08-07T14:48:16;21.75;21.50;12.00
72031;PMS5003;49185;42.320;23.198;2022-08-07T14:50:46;21.00;20.00;12.00
72031;PMS5003;49185;42.320;23.198;2022-08-07T14:53:16;21.25;20.50;10.00
72031;PMS5003;49185;42.320;23.198;2022-08-07T14:55:45;23.00;21.00;9.25
72031;PMS5003;49185;42.320;23.198;2022-08-07T14:58:12;20.00;18.00;9.25
72031;PMS5003;49185;42.320;23.198;2022-08-07T15:00:48;19.00;18.25;9.00
72031;PMS5003;49185;42.320;23.198;2022-08-07T15:03:15;16.00;15.00;7.00
72031;PMS5003;49185;42.320;23.198;2022-08-07T15:05:46;17.00;17.00;7.00
72031;PMS5003;49185;42.320;23.198;2022-08-07T15:08:12;18.00;17.00;7.25
72031;PMS5003;49185;42.320;23.198;2022-08-07T15:10:39;17.33;16.00;8.33
72031;PMS5003;49185;42.320;23.198;2022-08-07T15:13:15;18.75;17.75;9.00
72031;PMS5003;49185;42.320;23.198;2022-08-07T15:15:47;19.00;19.00;8.00
72031;PMS5003;49185;42.320;23.198;2022-08-07T15:18:19;20.00;20.00;9.50
72031;PMS5003;49185;42.320;23.198;2022-08-07T15:20:49;19.00;19.00;8.00
72031;PMS5003;49185;42.320;23.198;2022-08-07T15:23:21;19.25;18.00;9.00
72031;PMS5003;49185;42.320;23.198;2022-08-07T15:25:54;18.00;17.75;8.25
72031;PMS5003;49185;42.320;23.198;2022-08-07T15:28:24;17.00;16.00;7.00
72031;PMS5003;49185;42.320;23.198;2022-08-07T15:30:53;16.00;15.00;7.25
72031;PMS5003;49185;42.320;23.198;2022-08-07T15:33:23;14.00;13.25;6.00
72031;PMS5003;49185;42.320;23.198;2022-08-07T15:35:50;14.25;14.25;7.25
72031;PMS5003;49185;42.320;23.198;2022-08-07T15:38:38;15.00;13.50;7.00
72031;PMS5003;49185;42.320;23.198;2022-08-07T15:41:15;18.00;15.00;7.00
72031;PMS5003;49185;42.320;23.198;2022-08-07T15:43:47;17.00;16.00;7.25
72031;PMS5003;49185;42.320;23.198;2022-08-07T15:46:27;14.00;13.50;6.00
72031;PMS5003;49185;42.320;23.198;2022-08-07T15:48:54;15.00;15.00;7.00
72031;PMS5003;49185;42.320;23.198;2022-08-07T15:51:23;18.75;17.00;9.00
72031;PMS5003;49185;42.320;23.198;2022-08-07T15:53:52;19.75;19.75;9.00
72031;PMS5003;49185;42.320;23.198;2022-08-07T15:56:42;22.00;20.00;8.00
72031;PMS5003;49185;42.320;23.198;2022-08-07T15:59:08;19.00;18.00;8.00
72031;PMS5003;49185;42.320;23.198;2022-08-07T16:01:38;19.00;19.00;9.00
72031;PMS5003;49185;42.320;23.198;2022-08-07T16:04:12;18.00;18.00;9.25
72031;PMS5003;49185;42.320;23.198;2022-08-07T16:06:44;18.00;18.00;9.00
72031;PMS5003;49185;42.320;23.198;2022-08-07T16:14:14;20.50;18.00;10.00
72031;PMS5003;49185;42.320;23.198;2022-08-07T16:20:02;20.75;19.00;11.00
72031;PMS5003;49185;42.320;23.198;2022-08-07T16:22:56;19.50;19.00;9.25
72031;PMS5003;49185;42.320;23.198;2022-08-07T16:31:41;31.00;29.00;19.00
72031;PMS5003;49185;42.320;23.198;2022-08-07T16:34:20;23.25;23.25;17.00
72031;PMS5003;49185;42.320;23.198;2022-08-07T16:50:36;21.25;21.00;10.75
72031;PMS5003;49185;42.320;23.198;2022-08-07T17:01:58;23.00;21.75;12.00
72031;PMS5003;49185;42.320;23.198;2022-08-07T17:04:34;24.00;24.00;15.50
72031;PMS5003;49185;42.320;23.198;2022-08-07T17:07:20;24.50;24.00;16.00
72031;PMS5003;49185;42.320;23.198;2022-08-07T17:10:07;21.00;20.00;14.00
72031;PMS5003;49185;42.320;23.198;2022-08-07T17:18:07;21.00;19.00;9.75
72031;PMS5003;49185;42.320;23.198;2022-08-07T17:20:52;20.00;18.50;10.00
72031;PMS5003;49185;42.320;23.198;2022-08-07T17:31:17;21.00;21.00;11.00
72031;PMS5003;49185;42.320;23.198;2022-08-07T17:33:48;23.50;22.00;12.00
72031;PMS5003;49185;42.320;23.198;2022-08-07T17:36:27;23.00;21.00;13.00
72031;PMS5003;49185;42.320;23.198;2022-08-07T17:39:13;21.25;18.50;12.00
72031;PMS5003;49185;42.320;23.198;2022-08-07T17:46:57;19.00;19.00;9.25
72031;PMS5003;49185;42.320;23.198;2022-08-07T17:49:35;19.00;18.00;8.00
72031;PMS5003;49185;42.320;23.198;2022-08-07T17:52:08;20.50;18.00;9.00
72031;PMS5003;49185;42.320;23.198;2022-08-07T17:54:47;21.00;19.75;10.75
72031;PMS5003;49185;42.320;23.198;2022-08-07T17:59:46;22.25;22.00;14.00
72031;PMS5003;49185;42.320;23.198;2022-08-07T18:02:18;24.00;20.75;12.00
72031;PMS5003;49185;42.320;23.198;2022-08-07T18:07:43;21.25;21.00;13.00
72031;PMS5003;49185;42.320;23.198;2022-08-07T18:10:22;23.75;22.00;12.00
72031;PMS5003;49185;42.320;23.198;2022-08-07T18:15:57;24.00;23.50;13.25
72031;PMS5003;49185;42.320;23.198;2022-08-07T18:19:06;28.75;28.00;16.50
72031;PMS5003;49185;42.320;23.198;2022-08-07T18:24:27;40.75;33.50;22.50
72031;PMS5003;49185;42.320;23.198;2022-08-07T18:37:54;23.00;21.25;14.00
72031;PMS5003;49185;42.320;23.198;2022-08-07T18:40:31;28.00;25.00;16.75
72031;PMS5003;49185;42.320;23.198;2022-08-07T18:43:08;33.00;29.50;17.00
72031;PMS5003;49185;42.320;23.198;2022-08-07T18:45:43;31.00;28.00;18.50